sensor_id;sensor_type;location;lat;lon;timestamp;temperature;humidity
6102;DHT22;3081;50.584;7.032;2023-03-26T00:01:25;9.30;99.90
6102;DHT22;3081;50.584;7.032;2023-03-26T00:03:53;9.30;99.90
6102;DHT22;3081;50.584;7.032;2023-03-26T00:06:23;9.30;99.90
6102;DHT22;3081;50.584;7.032;2023-03-26T00:08:51;9.30;99.90
6102;DHT22;3081;50.584;7.032;2023-03-26T00:11:21;9.30;99.90
6102;DHT22;3081;50.584;7.032;2023-03-26T00:13:48;9.30;99.90
6102;DHT22;3081;50.584;7.032;2023-03-26T00:16:19;9.30;99.90
6102;DHT22;3081;50.584;7.032;2023-03-26T00:18:46;9.20;99.90
6102;DHT22;3081;50.584;7.032;2023-03-26T00:21:16;9.20;99.90
6102;DHT22;3081;50.584;7.032;2023-03-26T00:23:44;9.20;99.90
6102;DHT22;3081;50.584;7.032;2023-03-26T00:26:12;9.20;99.90
6102;DHT22;3081;50.584;7.032;2023-03-26T00:28:40;9.20;99.90
6102;DHT22;3081;50.584;7.032;2023-03-26T00:31:09;9.20;99.90
6102;DHT22;3081;50.584;7.032;2023-03-26T00:33:38;9.20;99.90
6102;DHT22;3081;50.584;7.032;2023-03-26T00:36:08;9.20;99.90
6102;DHT22;3081;50.584;7.032;2023-03-26T00:38:36;9.20;99.90
6102;DHT22;3081;50.584;7.032;2023-03-26T00:41:04;9.30;99.90
6102;DHT22;3081;50.584;7.032;2023-03-26T00:43:33;9.20;99.90
6102;DHT22;3081;50.584;7.032;2023-03-26T00:46:00;9.30;99.90
6102;DHT22;3081;50.584;7.032;2023-03-26T00:48:28;9.20;99.90
6102;DHT22;3081;50.584;7.032;2023-03-26T00:50:57;9.30;99.90
6102;DHT22;3081;50.584;7.032;2023-03-26T00:53:24;9.20;99.90
6102;DHT22;3081;50.584;7.032;2023-03-26T00:55:51;9.10;99.90
6102;DHT22;3081;50.584;7.032;2023-03-26T00:58:18;9.10;99.90
6102;DHT22;3081;50.584;7.032;2023-03-26T01:00:50;9.00;99.90
6102;DHT22;3081;50.584;7.032;2023-03-26T01:03:18;9.00;99.90
6102;DHT22;3081;50.584;7.032;2023-03-26T01:05:48;8.90;99.90
6102;DHT22;3081;50.584;7.032;2023-03-26T01:08:24;8.80;99.90
6102;DHT22;3081;50.584;7.032;2023-03-26T01:10:53;8.80;99.90
6102;DHT22;3081;50.584;7.032;2023-03-26T01:13:28;8.70;99.90
6102;DHT22;3081;50.584;7.032;2023-03-26T01:15:56;8.70;99.90
6102;DHT22;3081;50.584;7.032;2023-03-26T01:18:28;8.70;99.90
6102;DHT22;3081;50.584;7.032;2023-03-26T01:20:59;8.60;99.90
6102;DHT22;3081;50.584;7.032;2023-03-26T01:23:42;8.60;99.90
6102;DHT22;3081;50.584;7.032;2023-03-26T01:26:20;8.60;99.90
6102;DHT22;3081;50.584;7.032;2023-03-26T01:28:54;8.50;99.90
6102;DHT22;3081;50.584;7.032;2023-03-26T01:31:26;8.50;99.90
6102;DHT22;3081;50.584;7.032;2023-03-26T01:33:59;8.50;99.90
6102;DHT22;3081;50.584;7.032;2023-03-26T01:36:34;8.50;99.90
6102;DHT22;3081;50.584;7.032;2023-03-26T01:39:08;8.60;99.90
6102;DHT22;3081;50.584;7.032;2023-03-26T01:41:42;8.60;99.90
6102;DHT22;3081;50.584;7.032;2023-03-26T01:44:17;8.60;99.90
6102;DHT22;3081;50.584;7.032;2023-03-26T01:46:45;8.70;99.90
6102;DHT22;3081;50.584;7.032;2023-03-26T01:49:13;8.70;99.90
6102;DHT22;3081;50.584;7.032;2023-03-26T01:51:41;8.70;99.90
6102;DHT22;3081;50.584;7.032;2023-03-26T01:54:10;8.90;99.90
6102;DHT22;3081;50.584;7.032;2023-03-26T01:56:48;8.80;99.90
6102;DHT22;3081;50.584;7.032;2023-03-26T01:59:37;8.80;99.90
6102;DHT22;3081;50.584;7.032;2023-03-26T02:02:10;8.80;99.90
6102;DHT22;3081;50.584;7.032;2023-03-26T02:04:42;8.80;99.90
6102;DHT22;3081;50.584;7.032;2023-03-26T02:07:18;8.80;99.90
6102;DHT22;3081;50.584;7.032;2023-03-26T02:09:49;8.80;99.90
6102;DHT22;3081;50.584;7.032;2023-03-26T02:12:19;8.90;99.90
6102;DHT22;3081;50.584;7.032;2023-03-26T02:14:47;8.80;99.90
6102;DHT22;3081;50.584;7.032;2023-03-26T02:17:14;8.90;99.90
6102;DHT22;3081;50.584;7.032;2023-03-26T02:19:41;8.90;99.90
6102;DHT22;3081;50.584;7.032;2023-03-26T02:22:08;8.90;99.90
6102;DHT22;3081;50.584;7.032;2023-03-26T02:24:40;8.90;99.90
6102;DHT22;3081;50.584;7.032;2023-03-26T02:27:07;8.90;99.90
6102;DHT22;3081;50.584;7.032;2023-03-26T02:29:38;8.90;99.90
6102;DHT22;3081;50.584;7.032;2023-03-26T02:32:08;8.90;99.90
6102;DHT22;3081;50.584;7.032;2023-03-26T02:34:37;8.90;99.90
6102;DHT22;3081;50.584;7.032;2023-03-26T02:37:05;8.90;99.90
6102;DHT22;3081;50.584;7.032;2023-03-26T02:39:32;8.90;99.90
6102;DHT22;3081;50.584;7.032;2023-03-26T02:41:59;8.90;99.90
6102;DHT22;3081;50.584;7.032;2023-03-26T02:44:26;8.90;99.90
6102;DHT22;3081;50.584;7.032;2023-03-26T02:46:54;8.90;99.90
6102;DHT22;3081;50.584;7.032;2023-03-26T02:49:21;8.90;99.90
6102;DHT22;3081;50.584;7.032;2023-03-26T02:51:48;8.90;99.90
6102;DHT22;3081;50.584;7.032;2023-03-26T02:54:15;8.90;99.90
6102;DHT22;3081;50.584;7.032;2023-03-26T02:56:42;8.90;99.90
6102;DHT22;3081;50.584;7.032;2023-03-26T02:59:09;8.90;99.90
6102;DHT22;3081;50.584;7.032;2023-03-26T03:01:36;8.90;99.90
6102;DHT22;3081;50.584;7.032;2023-03-26T03:04:09;8.80;99.90
6102;DHT22;3081;50.584;7.032;2023-03-26T03:06:36;8.80;99.90
6102;DHT22;3081;50.584;7.032;2023-03-26T03:09:05;8.90;99.90
6102;DHT22;3081;50.584;7.032;2023-03-26T03:11:33;8.80;99.90
6102;DHT22;3081;50.584;7.032;2023-03-26T03:14:00;8.80;99.90
6102;DHT22;3081;50.584;7.032;2023-03-26T03:16:27;8.80;99.90
6102;DHT22;3081;50.584;7.032;2023-03-26T03:18:55;8.80;99.90
6102;DHT22;3081;50.584;7.032;2023-03-26T03:21:25;8.70;99.90
6102;DHT22;3081;50.584;7.032;2023-03-26T03:23:52;8.60;99.90
6102;DHT22;3081;50.584;7.032;2023-03-26T03:26:21;8.60;99.90
6102;DHT22;3081;50.584;7.032;2023-03-26T03:28:52;8.50;99.90
6102;DHT22;3081;50.584;7.032;2023-03-26T03:31:20;8.40;99.90
6102;DHT22;3081;50.584;7.032;2023-03-26T03:33:47;8.40;99.90
6102;DHT22;3081;50.584;7.032;2023-03-26T03:36:15;8.40;99.90
6102;DHT22;3081;50.584;7.032;2023-03-26T03:38:44;8.30;99.90
6102;DHT22;3081;50.584;7.032;2023-03-26T03:41:11;8.30;99.90
6102;DHT22;3081;50.584;7.032;2023-03-26T03:43:38;8.30;99.90
6102;DHT22;3081;50.584;7.032;2023-03-26T03:46:05;8.30;99.90
6102;DHT22;3081;50.584;7.032;2023-03-26T03:48:32;8.30;99.90
6102;DHT22;3081;50.584;7.032;2023-03-26T03:51:04;8.30;99.90
6102;DHT22;3081;50.584;7.032;2023-03-26T03:53:31;8.30;99.90
6102;DHT22;3081;50.584;7.032;2023-03-26T03:56:03;8.30;99.90
6102;DHT22;3081;50.584;7.032;2023-03-26T03:58:35;8.30;99.90
6102;DHT22;3081;50.584;7.032;2023-03-26T04:01:02;8.30;99.90
6102;DHT22;3081;50.584;7.032;2023-03-26T04:03:29;8.30;99.90
6102;DHT22;3081;50.584;7.032;2023-03-26T04:05:56;8.30;99.90
6102;DHT22;3081;50.584;7.032;2023-03-26T04:08:23;8.30;99.90
6102;DHT22;3081;50.584;7.032;2023-03-26T04:10:50;8.30;99.90
6102;DHT22;3081;50.584;7.032;2023-03-26T04:13:19;8.30;99.90
6102;DHT22;3081;50.584;7.032;2023-03-26T04:15:46;8.30;99.90
6102;DHT22;3081;50.584;7.032;2023-03-26T04:18:13;8.40;99.90
6102;DHT22;3081;50.584;7.032;2023-03-26T04:20:41;8.40;99.90
6102;DHT22;3081;50.584;7.032;2023-03-26T04:23:11;8.40;99.90
6102;DHT22;3081;50.584;7.032;2023-03-26T04:25:39;8.40;99.90
6102;DHT22;3081;50.584;7.032;2023-03-26T04:28:06;8.40;99.90
6102;DHT22;3081;50.584;7.032;2023-03-26T04:30:35;8.40;99.90
6102;DHT22;3081;50.584;7.032;2023-03-26T04:33:03;8.30;99.90
6102;DHT22;3081;50.584;7.032;2023-03-26T04:35:31;8.40;99.90
6102;DHT22;3081;50.584;7.032;2023-03-26T04:38:00;8.40;99.90
6102;DHT22;3081;50.584;7.032;2023-03-26T04:40:31;8.40;99.90
6102;DHT22;3081;50.584;7.032;2023-03-26T04:42:59;8.40;99.90
6102;DHT22;3081;50.584;7.032;2023-03-26T04:45:28;8.40;99.90
6102;DHT22;3081;50.584;7.032;2023-03-26T04:47:57;8.40;99.90
6102;DHT22;3081;50.584;7.032;2023-03-26T04:50:25;8.40;99.90
6102;DHT22;3081;50.584;7.032;2023-03-26T04:52:53;8.40;99.90
6102;DHT22;3081;50.584;7.032;2023-03-26T04:55:24;8.50;99.90
6102;DHT22;3081;50.584;7.032;2023-03-26T04:57:54;8.50;99.90
6102;DHT22;3081;50.584;7.032;2023-03-26T05:00:22;8.60;99.90
6102;DHT22;3081;50.584;7.032;2023-03-26T05:02:49;8.70;99.90
6102;DHT22;3081;50.584;7.032;2023-03-26T05:05:20;8.70;99.90
6102;DHT22;3081;50.584;7.032;2023-03-26T05:07:47;8.70;99.90
6102;DHT22;3081;50.584;7.032;2023-03-26T05:10:15;8.80;99.90
6102;DHT22;3081;50.584;7.032;2023-03-26T05:12:42;8.70;99.90
6102;DHT22;3081;50.584;7.032;2023-03-26T05:15:10;8.70;99.90
6102;DHT22;3081;50.584;7.032;2023-03-26T05:17:38;8.60;99.90
6102;DHT22;3081;50.584;7.032;2023-03-26T05:20:09;8.60;99.90
6102;DHT22;3081;50.584;7.032;2023-03-26T05:22:42;8.60;99.90
6102;DHT22;3081;50.584;7.032;2023-03-26T05:25:09;8.60;99.90
6102;DHT22;3081;50.584;7.032;2023-03-26T05:27:36;8.50;99.90
6102;DHT22;3081;50.584;7.032;2023-03-26T05:30:05;8.50;99.90
6102;DHT22;3081;50.584;7.032;2023-03-26T05:32:33;8.50;99.90
6102;DHT22;3081;50.584;7.032;2023-03-26T05:35:00;8.50;99.90
6102;DHT22;3081;50.584;7.032;2023-03-26T05:37:28;8.60;99.90
6102;DHT22;3081;50.584;7.032;2023-03-26T05:39:58;8.60;99.90
6102;DHT22;3081;50.584;7.032;2023-03-26T05:42:25;8.60;99.90
6102;DHT22;3081;50.584;7.032;2023-03-26T05:44:52;8.60;99.90
6102;DHT22;3081;50.584;7.032;2023-03-26T05:47:19;8.60;99.90
6102;DHT22;3081;50.584;7.032;2023-03-26T05:49:45;8.70;99.90
6102;DHT22;3081;50.584;7.032;2023-03-26T05:52:12;8.70;99.90
6102;DHT22;3081;50.584;7.032;2023-03-26T05:54:43;8.80;99.90
6102;DHT22;3081;50.584;7.032;2023-03-26T05:57:12;8.80;99.90
6102;DHT22;3081;50.584;7.032;2023-03-26T05:59:38;8.90;99.90
6102;DHT22;3081;50.584;7.032;2023-03-26T06:02:06;8.90;99.90
6102;DHT22;3081;50.584;7.032;2023-03-26T06:04:33;9.00;99.90
6102;DHT22;3081;50.584;7.032;2023-03-26T06:07:00;9.00;99.90
6102;DHT22;3081;50.584;7.032;2023-03-26T06:09:28;9.10;99.90
6102;DHT22;3081;50.584;7.032;2023-03-26T06:11:55;9.00;99.90
6102;DHT22;3081;50.584;7.032;2023-03-26T06:14:23;9.00;99.90
6102;DHT22;3081;50.584;7.032;2023-03-26T06:16:50;9.00;99.90
6102;DHT22;3081;50.584;7.032;2023-03-26T06:19:17;8.90;99.90
6102;DHT22;3081;50.584;7.032;2023-03-26T06:21:44;8.80;99.90
6102;DHT22;3081;50.584;7.032;2023-03-26T06:24:11;8.70;99.90
6102;DHT22;3081;50.584;7.032;2023-03-26T06:26:38;8.60;99.90
6102;DHT22;3081;50.584;7.032;2023-03-26T06:29:05;8.50;99.90
6102;DHT22;3081;50.584;7.032;2023-03-26T06:31:33;8.50;99.90
6102;DHT22;3081;50.584;7.032;2023-03-26T06:34:00;8.50;99.90
6102;DHT22;3081;50.584;7.032;2023-03-26T06:36:27;8.60;99.90
6102;DHT22;3081;50.584;7.032;2023-03-26T06:38:54;8.60;99.90
6102;DHT22;3081;50.584;7.032;2023-03-26T06:41:22;8.70;99.90
6102;DHT22;3081;50.584;7.032;2023-03-26T06:43:49;8.70;99.90
6102;DHT22;3081;50.584;7.032;2023-03-26T06:46:16;8.80;99.90
6102;DHT22;3081;50.584;7.032;2023-03-26T06:48:47;8.90;99.90
6102;DHT22;3081;50.584;7.032;2023-03-26T06:51:14;9.00;99.90
6102;DHT22;3081;50.584;7.032;2023-03-26T06:53:41;9.00;99.90
6102;DHT22;3081;50.584;7.032;2023-03-26T06:56:08;9.10;99.90
6102;DHT22;3081;50.584;7.032;2023-03-26T06:58:35;9.10;99.90
6102;DHT22;3081;50.584;7.032;2023-03-26T07:01:03;9.20;99.90
6102;DHT22;3081;50.584;7.032;2023-03-26T07:03:30;9.10;99.90
6102;DHT22;3081;50.584;7.032;2023-03-26T07:05:58;9.10;99.90
6102;DHT22;3081;50.584;7.032;2023-03-26T07:08:25;9.10;99.90
6102;DHT22;3081;50.584;7.032;2023-03-26T07:10:52;9.10;99.90
6102;DHT22;3081;50.584;7.032;2023-03-26T07:13:19;9.10;99.90
6102;DHT22;3081;50.584;7.032;2023-03-26T07:15:47;9.10;99.90
6102;DHT22;3081;50.584;7.032;2023-03-26T07:18:13;9.00;99.90
6102;DHT22;3081;50.584;7.032;2023-03-26T07:20:42;8.90;99.90
6102;DHT22;3081;50.584;7.032;2023-03-26T07:23:11;8.90;99.90
6102;DHT22;3081;50.584;7.032;2023-03-26T07:25:40;8.90;99.90
6102;DHT22;3081;50.584;7.032;2023-03-26T07:28:12;8.70;99.90
6102;DHT22;3081;50.584;7.032;2023-03-26T07:30:56;8.60;99.90
6102;DHT22;3081;50.584;7.032;2023-03-26T07:33:29;8.60;99.90
6102;DHT22;3081;50.584;7.032;2023-03-26T07:36:05;8.60;99.90
6102;DHT22;3081;50.584;7.032;2023-03-26T07:38:44;8.60;99.90
6102;DHT22;3081;50.584;7.032;2023-03-26T07:41:19;8.70;99.90
6102;DHT22;3081;50.584;7.032;2023-03-26T07:44:04;8.70;99.90
6102;DHT22;3081;50.584;7.032;2023-03-26T07:46:34;8.80;99.90
6102;DHT22;3081;50.584;7.032;2023-03-26T07:49:02;8.80;99.90
6102;DHT22;3081;50.584;7.032;2023-03-26T07:51:30;8.80;99.90
6102;DHT22;3081;50.584;7.032;2023-03-26T07:53:59;8.90;99.90
6102;DHT22;3081;50.584;7.032;2023-03-26T07:56:32;8.90;99.90
6102;DHT22;3081;50.584;7.032;2023-03-26T07:59:10;9.00;99.90
6102;DHT22;3081;50.584;7.032;2023-03-26T08:01:54;9.00;99.90
6102;DHT22;3081;50.584;7.032;2023-03-26T08:07:20;8.90;99.90
6102;DHT22;3081;50.584;7.032;2023-03-26T08:10:00;8.70;99.90
6102;DHT22;3081;50.584;7.032;2023-03-26T08:12:34;8.50;99.90
6102;DHT22;3081;50.584;7.032;2023-03-26T08:15:08;8.40;99.90
6102;DHT22;3081;50.584;7.032;2023-03-26T08:17:40;8.40;99.90
6102;DHT22;3081;50.584;7.032;2023-03-26T08:20:17;8.30;99.90
6102;DHT22;3081;50.584;7.032;2023-03-26T08:22:54;8.40;99.90
6102;DHT22;3081;50.584;7.032;2023-03-26T08:25:28;8.40;99.90
6102;DHT22;3081;50.584;7.032;2023-03-26T08:28:15;8.50;99.90
6102;DHT22;3081;50.584;7.032;2023-03-26T08:30:44;8.60;99.90
6102;DHT22;3081;50.584;7.032;2023-03-26T08:33:13;8.60;99.90
6102;DHT22;3081;50.584;7.032;2023-03-26T08:35:42;8.70;99.90
6102;DHT22;3081;50.584;7.032;2023-03-26T08:38:10;8.90;99.90
6102;DHT22;3081;50.584;7.032;2023-03-26T08:44:08;8.80;99.90
6102;DHT22;3081;50.584;7.032;2023-03-26T08:47:18;9.00;99.90
6102;DHT22;3081;50.584;7.032;2023-03-26T08:50:08;9.20;99.90
6102;DHT22;3081;50.584;7.032;2023-03-26T08:52:59;9.40;99.90
6102;DHT22;3081;50.584;7.032;2023-03-26T08:55:42;9.50;99.90
6102;DHT22;3081;50.584;7.032;2023-03-26T09:01:55;9.80;99.90
6102;DHT22;3081;50.584;7.032;2023-03-26T09:04:48;10.00;99.90
6102;DHT22;3081;50.584;7.032;2023-03-26T09:07:53;10.10;99.90
6102;DHT22;3081;50.584;7.032;2023-03-26T09:10:54;10.20;99.90
6102;DHT22;3081;50.584;7.032;2023-03-26T09:13:59;10.20;99.90
6102;DHT22;3081;50.584;7.032;2023-03-26T09:16:48;10.30;99.90
6102;DHT22;3081;50.584;7.032;2023-03-26T09:22:52;10.60;99.90
6102;DHT22;3081;50.584;7.032;2023-03-26T09:31:41;11.20;99.90
6102;DHT22;3081;50.584;7.032;2023-03-26T09:34:27;11.20;99.90
6102;DHT22;3081;50.584;7.032;2023-03-26T09:36:56;11.20;99.90
6102;DHT22;3081;50.584;7.032;2023-03-26T09:39:35;11.50;99.90
6102;DHT22;3081;50.584;7.032;2023-03-26T09:42:08;11.80;99.90
6102;DHT22;3081;50.584;7.032;2023-03-26T09:45:22;11.90;99.90
6102;DHT22;3081;50.584;7.032;2023-03-26T09:48:24;11.90;99.90
6102;DHT22;3081;50.584;7.032;2023-03-26T09:51:08;11.50;99.90
6102;DHT22;3081;50.584;7.032;2023-03-26T09:54:09;11.50;99.90
6102;DHT22;3081;50.584;7.032;2023-03-26T09:56:49;11.50;99.90
6102;DHT22;3081;50.584;7.032;2023-03-26T09:59:43;11.40;99.90
6102;DHT22;3081;50.584;7.032;2023-03-26T10:02:23;11.20;99.90
6102;DHT22;3081;50.584;7.032;2023-03-26T10:05:17;11.10;99.90
6102;DHT22;3081;50.584;7.032;2023-03-26T10:07:55;11.10;99.90
6102;DHT22;3081;50.584;7.032;2023-03-26T10:10:31;10.90;99.90
6102;DHT22;3081;50.584;7.032;2023-03-26T10:13:04;10.80;99.90
6102;DHT22;3081;50.584;7.032;2023-03-26T10:15:42;10.90;99.90
6102;DHT22;3081;50.584;7.032;2023-03-26T10:18:19;11.10;99.90
6102;DHT22;3081;50.584;7.032;2023-03-26T10:21:00;11.10;99.90
6102;DHT22;3081;50.584;7.032;2023-03-26T10:24:00;11.30;99.90
6102;DHT22;3081;50.584;7.032;2023-03-26T10:26:49;11.60;99.90
6102;DHT22;3081;50.584;7.032;2023-03-26T10:29:34;11.00;99.90
6102;DHT22;3081;50.584;7.032;2023-03-26T10:32:16;11.60;99.90
6102;DHT22;3081;50.584;7.032;2023-03-26T10:34:57;11.20;99.90
6102;DHT22;3081;50.584;7.032;2023-03-26T10:37:39;11.30;99.90
6102;DHT22;3081;50.584;7.032;2023-03-26T10:40:21;11.10;99.90
6102;DHT22;3081;50.584;7.032;2023-03-26T10:43:11;10.90;99.90
6102;DHT22;3081;50.584;7.032;2023-03-26T10:46:00;10.70;99.90
6102;DHT22;3081;50.584;7.032;2023-03-26T10:48:53;10.50;99.90
6102;DHT22;3081;50.584;7.032;2023-03-26T10:51:46;10.40;99.90
6102;DHT22;3081;50.584;7.032;2023-03-26T10:54:35;10.40;99.90
6102;DHT22;3081;50.584;7.032;2023-03-26T10:57:09;10.40;99.90
6102;DHT22;3081;50.584;7.032;2023-03-26T10:59:38;10.50;99.90
6102;DHT22;3081;50.584;7.032;2023-03-26T11:02:23;10.60;99.90
6102;DHT22;3081;50.584;7.032;2023-03-26T11:04:58;10.60;99.90
6102;DHT22;3081;50.584;7.032;2023-03-26T11:07:33;10.40;99.90
6102;DHT22;3081;50.584;7.032;2023-03-26T11:10:06;10.30;99.90
6102;DHT22;3081;50.584;7.032;2023-03-26T11:12:39;10.20;99.90
6102;DHT22;3081;50.584;7.032;2023-03-26T11:15:21;10.00;99.90
6102;DHT22;3081;50.584;7.032;2023-03-26T11:17:57;9.80;99.90
6102;DHT22;3081;50.584;7.032;2023-03-26T11:20:33;9.70;99.90
6102;DHT22;3081;50.584;7.032;2023-03-26T11:23:16;9.70;99.90
6102;DHT22;3081;50.584;7.032;2023-03-26T11:26:05;9.70;99.90
6102;DHT22;3081;50.584;7.032;2023-03-26T11:28:42;9.60;99.90
6102;DHT22;3081;50.584;7.032;2023-03-26T11:31:18;9.50;99.90
6102;DHT22;3081;50.584;7.032;2023-03-26T11:33:52;9.40;99.90
6102;DHT22;3081;50.584;7.032;2023-03-26T11:36:24;9.30;99.90
6102;DHT22;3081;50.584;7.032;2023-03-26T11:38:54;9.30;99.90
6102;DHT22;3081;50.584;7.032;2023-03-26T11:41:26;9.20;99.90
6102;DHT22;3081;50.584;7.032;2023-03-26T11:43:58;9.20;99.90
6102;DHT22;3081;50.584;7.032;2023-03-26T11:46:27;9.20;99.90
6102;DHT22;3081;50.584;7.032;2023-03-26T11:48:57;8.80;99.90
6102;DHT22;3081;50.584;7.032;2023-03-26T11:51:28;8.30;99.90
6102;DHT22;3081;50.584;7.032;2023-03-26T11:53:56;8.20;99.90
6102;DHT22;3081;50.584;7.032;2023-03-26T11:56:28;8.10;99.90
6102;DHT22;3081;50.584;7.032;2023-03-26T11:58:59;8.00;99.90
6102;DHT22;3081;50.584;7.032;2023-03-26T12:01:28;7.90;99.90
6102;DHT22;3081;50.584;7.032;2023-03-26T12:04:10;7.80;99.90
6102;DHT22;3081;50.584;7.032;2023-03-26T12:06:38;7.80;99.90
6102;DHT22;3081;50.584;7.032;2023-03-26T12:09:15;7.70;99.90
6102;DHT22;3081;50.584;7.032;2023-03-26T12:11:43;7.80;99.90
6102;DHT22;3081;50.584;7.032;2023-03-26T12:14:16;7.70;99.90
6102;DHT22;3081;50.584;7.032;2023-03-26T12:17:03;7.70;99.90
6102;DHT22;3081;50.584;7.032;2023-03-26T12:19:37;7.70;99.90
6102;DHT22;3081;50.584;7.032;2023-03-26T12:22:10;7.60;99.90
6102;DHT22;3081;50.584;7.032;2023-03-26T12:25:00;7.50;99.90
6102;DHT22;3081;50.584;7.032;2023-03-26T12:27:29;7.50;99.90
6102;DHT22;3081;50.584;7.032;2023-03-26T12:29:59;7.50;99.90
6102;DHT22;3081;50.584;7.032;2023-03-26T12:32:38;7.60;99.90
6102;DHT22;3081;50.584;7.032;2023-03-26T12:35:14;7.60;99.90
6102;DHT22;3081;50.584;7.032;2023-03-26T12:37:43;7.70;99.90
6102;DHT22;3081;50.584;7.032;2023-03-26T12:40:27;7.80;99.90
6102;DHT22;3081;50.584;7.032;2023-03-26T12:42:57;7.90;99.90
6102;DHT22;3081;50.584;7.032;2023-03-26T12:45:29;8.10;99.90
6102;DHT22;3081;50.584;7.032;2023-03-26T12:47:56;8.20;99.90
6102;DHT22;3081;50.584;7.032;2023-03-26T12:50:29;8.40;99.90
6102;DHT22;3081;50.584;7.032;2023-03-26T12:53:12;8.50;99.90
6102;DHT22;3081;50.584;7.032;2023-03-26T12:55:49;8.50;99.90
6102;DHT22;3081;50.584;7.032;2023-03-26T12:58:36;8.60;99.90
6102;DHT22;3081;50.584;7.032;2023-03-26T13:01:12;8.70;99.90
6102;DHT22;3081;50.584;7.032;2023-03-26T13:03:58;8.80;99.90
6102;DHT22;3081;50.584;7.032;2023-03-26T13:06:39;9.00;99.90
6102;DHT22;3081;50.584;7.032;2023-03-26T13:09:41;8.90;99.90
6102;DHT22;3081;50.584;7.032;2023-03-26T13:12:24;8.90;99.90
6102;DHT22;3081;50.584;7.032;2023-03-26T13:15:02;8.80;99.90
6102;DHT22;3081;50.584;7.032;2023-03-26T13:17:38;8.60;99.90
6102;DHT22;3081;50.584;7.032;2023-03-26T13:20:13;8.60;99.90
6102;DHT22;3081;50.584;7.032;2023-03-26T13:22:49;8.60;99.90
6102;DHT22;3081;50.584;7.032;2023-03-26T13:25:30;8.50;99.90
6102;DHT22;3081;50.584;7.032;2023-03-26T13:28:07;8.50;99.90
6102;DHT22;3081;50.584;7.032;2023-03-26T13:30:42;8.50;99.90
6102;DHT22;3081;50.584;7.032;2023-03-26T13:33:37;8.40;99.90
6102;DHT22;3081;50.584;7.032;2023-03-26T13:36:11;8.40;99.90
6102;DHT22;3081;50.584;7.032;2023-03-26T13:38:47;8.40;99.90
6102;DHT22;3081;50.584;7.032;2023-03-26T13:41:25;8.60;99.90
6102;DHT22;3081;50.584;7.032;2023-03-26T13:44:02;8.70;99.90
6102;DHT22;3081;50.584;7.032;2023-03-26T13:46:38;8.80;99.90
6102;DHT22;3081;50.584;7.032;2023-03-26T13:49:10;9.00;99.90
6102;DHT22;3081;50.584;7.032;2023-03-26T13:51:43;9.10;99.90
6102;DHT22;3081;50.584;7.032;2023-03-26T13:54:17;9.20;99.90
6102;DHT22;3081;50.584;7.032;2023-03-26T13:56:50;9.40;99.90
6102;DHT22;3081;50.584;7.032;2023-03-26T13:59:20;9.50;99.90
6102;DHT22;3081;50.584;7.032;2023-03-26T14:01:55;9.60;99.90
6102;DHT22;3081;50.584;7.032;2023-03-26T14:04:27;9.70;99.90
6102;DHT22;3081;50.584;7.032;2023-03-26T14:07:02;9.60;99.90
6102;DHT22;3081;50.584;7.032;2023-03-26T14:09:37;9.50;99.90
6102;DHT22;3081;50.584;7.032;2023-03-26T14:12:19;9.50;99.90
6102;DHT22;3081;50.584;7.032;2023-03-26T14:14:51;9.60;99.90
6102;DHT22;3081;50.584;7.032;2023-03-26T14:17:23;9.70;99.90
6102;DHT22;3081;50.584;7.032;2023-03-26T14:20:19;9.70;99.90
6102;DHT22;3081;50.584;7.032;2023-03-26T14:23:01;9.70;99.90
6102;DHT22;3081;50.584;7.032;2023-03-26T14:25:41;9.90;99.90
6102;DHT22;3081;50.584;7.032;2023-03-26T14:28:23;9.80;99.90
6102;DHT22;3081;50.584;7.032;2023-03-26T14:31:10;9.70;99.90
6102;DHT22;3081;50.584;7.032;2023-03-26T14:33:59;9.60;99.90
6102;DHT22;3081;50.584;7.032;2023-03-26T14:40:23;9.40;99.90
6102;DHT22;3081;50.584;7.032;2023-03-26T14:42:56;9.40;99.90
6102;DHT22;3081;50.584;7.032;2023-03-26T14:48:36;9.40;99.90
6102;DHT22;3081;50.584;7.032;2023-03-26T14:51:14;9.50;99.90
6102;DHT22;3081;50.584;7.032;2023-03-26T14:53:47;9.50;99.90
6102;DHT22;3081;50.584;7.032;2023-03-26T15:05:51;9.30;99.90
6102;DHT22;3081;50.584;7.032;2023-03-26T15:11:48;9.00;99.90
6102;DHT22;3081;50.584;7.032;2023-03-26T15:17:50;9.10;99.90
6102;DHT22;3081;50.584;7.032;2023-03-26T15:27:23;9.10;99.90
6102;DHT22;3081;50.584;7.032;2023-03-26T15:33:34;8.90;99.90
6102;DHT22;3081;50.584;7.032;2023-03-26T15:36:25;8.80;99.90
6102;DHT22;3081;50.584;7.032;2023-03-26T15:39:25;8.80;99.90
6102;DHT22;3081;50.584;7.032;2023-03-26T15:42:05;8.70;99.90
6102;DHT22;3081;50.584;7.032;2023-03-26T15:44:47;8.70;99.90
6102;DHT22;3081;50.584;7.032;2023-03-26T15:50:38;8.70;99.90
6102;DHT22;3081;50.584;7.032;2023-03-26T15:53:22;8.70;99.90
6102;DHT22;3081;50.584;7.032;2023-03-26T15:56:04;8.60;99.90
6102;DHT22;3081;50.584;7.032;2023-03-26T15:58:35;8.70;99.90
6102;DHT22;3081;50.584;7.032;2023-03-26T16:01:18;8.70;99.90
6102;DHT22;3081;50.584;7.032;2023-03-26T16:03:56;8.70;99.90
6102;DHT22;3081;50.584;7.032;2023-03-26T16:06:29;8.70;99.90
6102;DHT22;3081;50.584;7.032;2023-03-26T16:12:31;8.60;99.90
6102;DHT22;3081;50.584;7.032;2023-03-26T16:15:30;8.60;99.90
6102;DHT22;3081;50.584;7.032;2023-03-26T16:18:19;8.60;99.90
6102;DHT22;3081;50.584;7.032;2023-03-26T16:20:52;8.50;99.90
6102;DHT22;3081;50.584;7.032;2023-03-26T16:23:24;8.40;99.90
6102;DHT22;3081;50.584;7.032;2023-03-26T16:25:57;8.50;99.90
6102;DHT22;3081;50.584;7.032;2023-03-26T16:28:30;8.40;99.90
6102;DHT22;3081;50.584;7.032;2023-03-26T16:34:19;8.40;99.90
6102;DHT22;3081;50.584;7.032;2023-03-26T16:36:47;8.40;99.90
6102;DHT22;3081;50.584;7.032;2023-03-26T16:39:23;8.50;99.90
6102;DHT22;3081;50.584;7.032;2023-03-26T16:41:54;8.50;99.90
6102;DHT22;3081;50.584;7.032;2023-03-26T16:44:27;8.50;99.90
6102;DHT22;3081;50.584;7.032;2023-03-26T16:47:01;8.50;99.90
6102;DHT22;3081;50.584;7.032;2023-03-26T16:49:44;8.50;99.90
6102;DHT22;3081;50.584;7.032;2023-03-26T16:52:30;8.50;99.90
6102;DHT22;3081;50.584;7.032;2023-03-26T16:55:05;8.50;99.90
6102;DHT22;3081;50.584;7.032;2023-03-26T16:57:44;8.50;99.90
6102;DHT22;3081;50.584;7.032;2023-03-26T17:00:29;8.40;99.90
6102;DHT22;3081;50.584;7.032;2023-03-26T17:06:10;8.30;99.90
6102;DHT22;3081;50.584;7.032;2023-03-26T17:08:47;8.30;99.90
6102;DHT22;3081;50.584;7.032;2023-03-26T17:11:25;8.30;99.90
6102;DHT22;3081;50.584;7.032;2023-03-26T17:14:02;8.30;99.90
6102;DHT22;3081;50.584;7.032;2023-03-26T17:16:34;8.20;99.90
6102;DHT22;3081;50.584;7.032;2023-03-26T17:19:13;8.30;99.90
6102;DHT22;3081;50.584;7.032;2023-03-26T17:21:51;8.30;99.90
6102;DHT22;3081;50.584;7.032;2023-03-26T17:24:28;8.30;99.90
6102;DHT22;3081;50.584;7.032;2023-03-26T17:27:02;8.20;99.90
6102;DHT22;3081;50.584;7.032;2023-03-26T17:29:47;8.20;99.90
6102;DHT22;3081;50.584;7.032;2023-03-26T17:32:17;8.20;99.90
6102;DHT22;3081;50.584;7.032;2023-03-26T17:34:58;8.10;99.90
6102;DHT22;3081;50.584;7.032;2023-03-26T17:37:39;8.10;99.90
6102;DHT22;3081;50.584;7.032;2023-03-26T17:40:49;8.10;99.90
6102;DHT22;3081;50.584;7.032;2023-03-26T17:43:35;8.10;99.90
6102;DHT22;3081;50.584;7.032;2023-03-26T17:46:04;8.10;99.90
6102;DHT22;3081;50.584;7.032;2023-03-26T17:48:37;8.10;99.90
6102;DHT22;3081;50.584;7.032;2023-03-26T17:51:26;8.00;99.90
6102;DHT22;3081;50.584;7.032;2023-03-26T17:53:57;7.90;99.90
6102;DHT22;3081;50.584;7.032;2023-03-26T17:56:28;8.00;99.90
6102;DHT22;3081;50.584;7.032;2023-03-26T17:58:59;8.00;99.90
6102;DHT22;3081;50.584;7.032;2023-03-26T18:01:35;8.00;99.90
6102;DHT22;3081;50.584;7.032;2023-03-26T18:04:05;8.00;99.90
6102;DHT22;3081;50.584;7.032;2023-03-26T18:06:48;8.00;99.90
6102;DHT22;3081;50.584;7.032;2023-03-26T18:09:34;8.00;99.90